createdAt,value
2023-05-22T00:00:21.360Z,0.00
2023-05-22T00:01:21.392Z,0.00
2023-05-22T00:02:21.396Z,0.00
2023-05-22T00:03:21.426Z,0.00
2023-05-22T00:04:21.478Z,0.00
2023-05-22T00:05:21.396Z,0.00
2023-05-22T00:06:21.252Z,0.00
2023-05-22T00:07:21.236Z,0.00
2023-05-22T00:08:21.226Z,0.00
2023-05-22T00:09:21.239Z,0.00
2023-05-22T00:10:21.176Z,0.00
2023-05-22T00:11:21.255Z,0.00
2023-05-22T00:12:21.142Z,0.00
2023-05-22T00:13:21.140Z,0.00
2023-05-22T00:14:21.108Z,0.00
2023-05-22T00:15:21.192Z,0.00
2023-05-22T00:16:21.149Z,0.00
2023-05-22T00:17:22.305Z,0.00
2023-05-22T00:18:21.037Z,0.00
2023-05-22T00:19:21.084Z,0.00
2023-05-22T00:20:21.027Z,0.00
2023-05-22T00:21:20.975Z,0.00
2023-05-22T00:22:21.077Z,0.00
2023-05-22T00:23:20.933Z,0.00
2023-05-22T00:24:20.924Z,0.00
2023-05-22T00:25:20.893Z,0.00
2023-05-22T00:26:20.957Z,0.00
2023-05-22T00:27:20.867Z,0.00
2023-05-22T00:28:20.862Z,0.00
2023-05-22T00:29:20.821Z,0.00
2023-05-22T00:30:20.804Z,0.00
2023-05-22T00:31:20.794Z,0.00
2023-05-22T00:32:20.822Z,0.00
2023-05-22T00:33:20.755Z,0.00
2023-05-22T00:34:20.831Z,0.00
2023-05-22T00:35:20.731Z,0.00
2023-05-22T00:36:20.689Z,0.00
2023-05-22T00:37:20.693Z,0.00
2023-05-22T00:38:20.732Z,0.00
2023-05-22T00:39:20.633Z,0.00
2023-05-22T00:40:20.644Z,0.00
2023-05-22T00:41:20.596Z,0.00
2023-05-22T00:42:20.646Z,0.00
2023-05-22T00:43:20.670Z,0.00
2023-05-22T00:44:20.547Z,0.00
2023-05-22T00:45:20.581Z,0.00
2023-05-22T00:46:20.521Z,0.00
2023-05-22T00:47:20.611Z,0.00
2023-05-22T00:48:20.481Z,0.00
2023-05-22T00:49:20.509Z,0.00
2023-05-22T00:50:20.442Z,0.00
2023-05-22T00:51:20.425Z,0.00
2023-05-22T00:52:20.395Z,0.00
2023-05-22T00:53:20.374Z,0.00
2023-05-22T00:54:20.353Z,0.00
2023-05-22T00:55:20.352Z,0.00
2023-05-22T00:56:20.319Z,0.00
2023-05-22T00:57:20.368Z,0.00
2023-05-22T00:58:20.313Z,0.00
2023-05-22T00:59:20.256Z,0.00
2023-05-22T01:00:20.261Z,0.00
2023-05-22T01:01:20.316Z,0.00
2023-05-22T01:02:20.205Z,0.00
2023-05-22T01:03:20.357Z,0.00
2023-05-22T01:04:20.219Z,0.00
2023-05-22T01:05:20.152Z,0.00
2023-05-22T01:06:20.233Z,0.00
2023-05-22T01:07:20.107Z,0.00
2023-05-22T01:08:20.133Z,0.00
2023-05-22T01:09:20.076Z,0.00
2023-05-22T01:10:20.161Z,0.00
2023-05-22T01:11:20.039Z,0.00
2023-05-22T01:12:20.057Z,0.00
2023-05-22T01:13:19.995Z,0.00
2023-05-22T01:14:20.092Z,0.00
2023-05-22T01:15:19.953Z,0.00
2023-05-22T01:16:20.033Z,0.00
2023-05-22T01:17:19.915Z,0.00
2023-05-22T01:18:20.045Z,0.00
2023-05-22T01:19:19.905Z,0.00
2023-05-22T01:20:19.946Z,0.00
2023-05-22T01:21:19.854Z,0.00
2023-05-22T01:22:19.874Z,0.00
2023-05-22T01:23:19.830Z,0.00
2023-05-22T01:24:19.783Z,0.00
2023-05-22T01:25:19.845Z,0.00
2023-05-22T01:26:19.758Z,0.00
2023-05-22T01:27:19.761Z,0.00
2023-05-22T01:28:19.721Z,0.00
2023-05-22T01:29:19.783Z,0.00
2023-05-22T01:30:19.678Z,0.00
2023-05-22T01:31:19.695Z,0.00
2023-05-22T01:32:19.631Z,0.00
2023-05-22T01:33:19.734Z,0.00
2023-05-22T01:34:19.593Z,0.00
2023-05-22T01:35:19.637Z,0.00
2023-05-22T01:36:19.552Z,0.00
2023-05-22T01:37:19.634Z,0.00
2023-05-22T01:38:19.528Z,0.00
2023-05-22T01:39:19.571Z,0.00
2023-05-22T01:40:19.563Z,0.00
2023-05-22T01:41:19.457Z,0.00
2023-05-22T01:42:19.477Z,0.00
2023-05-22T01:43:19.433Z,0.00
2023-05-22T01:44:19.486Z,0.00
2023-05-22T01:45:19.382Z,0.00
2023-05-22T01:46:19.428Z,0.00
2023-05-22T01:47:19.365Z,0.00
2023-05-22T01:48:19.402Z,0.00
2023-05-22T01:49:19.309Z,0.00
2023-05-22T01:50:19.319Z,0.00
2023-05-22T01:51:19.270Z,0.00
2023-05-22T01:52:19.340Z,0.00
2023-05-22T01:53:19.237Z,0.00
2023-05-22T01:54:19.256Z,0.00
2023-05-22T01:55:19.203Z,0.00
2023-05-22T01:56:19.194Z,0.00
2023-05-22T01:57:19.154Z,0.00
2023-05-22T01:58:19.182Z,0.00
2023-05-22T01:59:19.116Z,0.00
2023-05-22T02:00:19.205Z,0.00
2023-05-22T02:01:19.134Z,0.00
2023-05-22T02:02:19.129Z,0.00
2023-05-22T02:03:19.255Z,0.00
2023-05-22T02:04:20.134Z,0.00
2023-05-22T02:05:19.010Z,0.00
2023-05-22T02:06:21.090Z,0.00
2023-05-22T02:07:18.963Z,0.00
2023-05-22T02:08:18.944Z,0.00
2023-05-22T02:09:18.950Z,0.00
2023-05-22T02:10:18.927Z,0.00
2023-05-22T02:11:18.973Z,0.00
2023-05-22T02:12:18.880Z,0.00
2023-05-22T02:13:18.878Z,0.00
2023-05-22T02:14:18.840Z,0.00
2023-05-22T02:15:18.889Z,0.00
2023-05-22T02:16:18.808Z,0.00
2023-05-22T02:17:18.799Z,0.00
2023-05-22T02:18:18.759Z,0.00
2023-05-22T02:19:18.774Z,0.00
2023-05-22T02:20:18.718Z,0.00
2023-05-22T02:21:18.739Z,0.00
2023-05-22T02:22:18.698Z,0.00
2023-05-22T02:23:18.747Z,0.00
2023-05-22T02:24:18.641Z,0.00
2023-05-22T02:25:18.620Z,0.00
2023-05-22T02:26:18.607Z,0.00
2023-05-22T02:27:18.691Z,0.00
2023-05-22T02:28:18.568Z,0.00
2023-05-22T02:29:18.595Z,0.00
2023-05-22T02:30:18.526Z,0.00
2023-05-22T02:31:18.561Z,0.00
2023-05-22T02:32:18.523Z,0.00
2023-05-22T02:33:18.467Z,0.00
2023-05-22T02:34:18.520Z,0.00
2023-05-22T02:35:18.446Z,0.00
2023-05-22T02:36:18.431Z,0.00
2023-05-22T02:37:18.390Z,0.00
2023-05-22T02:38:18.440Z,0.00
2023-05-22T02:39:18.362Z,0.00
2023-05-22T02:40:18.352Z,0.00
2023-05-22T02:41:18.318Z,0.00
2023-05-22T02:42:18.293Z,0.00
2023-05-22T02:43:18.265Z,0.00
2023-05-22T02:44:18.282Z,0.00
2023-05-22T02:45:18.229Z,0.00
2023-05-22T02:46:18.300Z,0.00
2023-05-22T02:47:18.204Z,0.00
2023-05-22T02:48:18.267Z,0.00
2023-05-22T02:49:18.146Z,0.00
2023-05-22T02:50:18.245Z,0.00
2023-05-22T02:51:18.106Z,0.00
2023-05-22T02:52:18.131Z,0.00
2023-05-22T02:53:18.068Z,0.00
2023-05-22T02:54:18.048Z,0.00
2023-05-22T02:55:18.043Z,0.00
2023-05-22T02:56:18.009Z,0.00
2023-05-22T02:57:18.064Z,0.00
2023-05-22T02:58:17.987Z,0.00
2023-05-22T02:59:17.970Z,0.00
2023-05-22T03:00:17.941Z,0.00
2023-05-22T03:01:18.003Z,0.00
2023-05-22T03:02:17.892Z,0.00
2023-05-22T03:03:18.000Z,0.00
2023-05-22T03:04:17.850Z,0.00
2023-05-22T03:05:18.177Z,0.00
2023-05-22T03:06:17.909Z,0.00
2023-05-22T03:07:17.826Z,0.00
2023-05-22T03:08:17.783Z,0.00
2023-05-22T03:09:17.853Z,0.00
2023-05-22T03:10:17.743Z,0.00
2023-05-22T03:11:17.738Z,0.00
2023-05-22T03:12:17.698Z,4.00
2023-05-22T03:13:17.777Z,4.00
2023-05-22T03:14:17.677Z,0.00
2023-05-22T03:15:17.680Z,4.00
2023-05-22T03:16:17.724Z,4.00
2023-05-22T03:17:17.608Z,4.00
2023-05-22T03:18:17.601Z,4.00
2023-05-22T03:19:17.675Z,4.00
2023-05-22T03:20:17.533Z,8.00
2023-05-22T03:21:17.628Z,4.00
2023-05-22T03:22:17.509Z,8.00
2023-05-22T03:23:17.482Z,8.00
2023-05-22T03:24:17.542Z,8.00
2023-05-22T03:25:17.438Z,8.00
2023-05-22T03:26:17.454Z,12.00
2023-05-22T03:27:17.428Z,12.00
2023-05-22T03:28:17.392Z,16.00
2023-05-22T03:29:17.412Z,16.00
2023-05-22T03:30:17.380Z,16.00
2023-05-22T03:31:17.332Z,20.00
2023-05-22T03:32:17.406Z,20.00
2023-05-22T03:33:17.334Z,20.00
2023-05-22T03:34:17.277Z,20.00
2023-05-22T03:35:17.323Z,24.00
2023-05-22T03:36:17.225Z,24.00
2023-05-22T03:37:17.227Z,28.00
2023-05-22T03:38:17.310Z,32.00
2023-05-22T03:39:17.246Z,32.00
2023-05-22T03:40:17.259Z,36.00
2023-05-22T03:41:17.137Z,40.00
2023-05-22T03:42:17.178Z,44.00
2023-05-22T03:43:17.086Z,44.00
2023-05-22T03:44:17.176Z,48.00
2023-05-22T03:45:17.083Z,52.00
2023-05-22T03:46:17.065Z,56.00
2023-05-22T03:47:17.124Z,56.00
2023-05-22T03:48:17.003Z,64.00
2023-05-22T03:49:17.015Z,64.00
2023-05-22T03:50:16.954Z,68.00
2023-05-22T03:51:19.299Z,72.00
2023-05-22T03:52:16.913Z,76.00
2023-05-22T03:53:16.946Z,84.00
2023-05-22T03:54:16.889Z,88.00
2023-05-22T03:55:16.953Z,92.00
2023-05-22T03:56:16.850Z,96.00
2023-05-22T03:57:16.802Z,100.00
2023-05-22T03:58:16.806Z,108.00
2023-05-22T03:59:16.778Z,108.00
2023-05-22T04:00:16.752Z,116.00
2023-05-22T04:01:16.846Z,124.00
2023-05-22T04:02:16.862Z,128.00
2023-05-22T04:03:16.784Z,136.00
2023-05-22T04:04:16.707Z,136.00
2023-05-22T04:05:16.710Z,148.00
2023-05-22T04:06:16.723Z,152.00
2023-05-22T04:07:16.602Z,160.00
2023-05-22T04:08:16.609Z,164.00
2023-05-22T04:09:16.560Z,172.00
2023-05-22T04:10:16.669Z,176.00
2023-05-22T04:11:16.516Z,180.00
2023-05-22T04:12:16.568Z,192.00
2023-05-22T04:13:16.476Z,196.00
2023-05-22T04:14:16.465Z,204.00
2023-05-22T04:15:16.436Z,208.00
2023-05-22T04:16:16.529Z,216.00
2023-05-22T04:17:16.418Z,220.00
2023-05-22T04:18:16.504Z,232.00
2023-05-22T04:19:16.377Z,240.00
2023-05-22T04:20:16.351Z,244.00
2023-05-22T04:21:16.343Z,252.00
2023-05-22T04:22:16.341Z,256.00
2023-05-22T04:23:16.301Z,264.00
2023-05-22T04:24:16.359Z,276.00
2023-05-22T04:25:16.240Z,284.00
2023-05-22T04:26:16.214Z,288.00
2023-05-22T04:27:16.280Z,296.00
2023-05-22T04:28:16.188Z,300.00
2023-05-22T04:29:16.173Z,308.00
2023-05-22T04:30:16.137Z,316.00
2023-05-22T04:31:16.209Z,324.00
2023-05-22T04:32:16.098Z,328.00
2023-05-22T04:33:16.113Z,340.00
2023-05-22T04:34:16.080Z,348.00
2023-05-22T04:35:16.127Z,352.00
2023-05-22T04:36:16.016Z,348.00
2023-05-22T04:37:15.997Z,336.00
2023-05-22T04:38:15.990Z,332.00
2023-05-22T04:39:16.042Z,356.00
2023-05-22T04:40:15.943Z,364.00
2023-05-22T04:41:15.957Z,360.00
2023-05-22T04:42:16.098Z,356.00
2023-05-22T04:43:15.873Z,368.00
2023-05-22T04:44:15.874Z,388.00
2023-05-22T04:45:15.833Z,400.00
2023-05-22T04:46:15.916Z,424.00
2023-05-22T04:47:15.840Z,412.00
2023-05-22T04:48:15.802Z,420.00
2023-05-22T04:49:15.754Z,436.00
2023-05-22T04:50:15.837Z,448.00
2023-05-22T04:51:15.721Z,468.00
2023-05-22T04:52:15.727Z,480.00
2023-05-22T04:53:15.703Z,476.00
2023-05-22T04:54:15.771Z,472.00
2023-05-22T04:55:15.641Z,476.00
2023-05-22T04:56:21.268Z,484.00
2023-05-22T04:57:15.590Z,512.00
2023-05-22T04:58:15.671Z,520.00
2023-05-22T04:59:15.569Z,536.00
2023-05-22T05:00:15.551Z,544.00
2023-05-22T05:01:15.616Z,556.00
2023-05-22T05:02:15.623Z,572.00
2023-05-22T05:03:15.535Z,572.00
2023-05-22T05:04:15.509Z,572.00
2023-05-22T05:05:15.431Z,576.00
2023-05-22T05:06:15.406Z,580.00
2023-05-22T05:07:15.391Z,604.00
2023-05-22T05:08:15.450Z,604.00
2023-05-22T05:09:15.367Z,612.00
2023-05-22T05:10:15.362Z,600.00
2023-05-22T05:11:15.308Z,584.00
2023-05-22T05:12:15.293Z,556.00
2023-05-22T05:13:15.371Z,540.00
2023-05-22T05:14:15.262Z,536.00
2023-05-22T05:15:15.278Z,548.00
2023-05-22T05:16:15.242Z,552.00
2023-05-22T05:17:15.291Z,556.00
2023-05-22T05:18:15.215Z,540.00
2023-05-22T05:19:15.293Z,540.00
2023-05-22T05:20:15.125Z,556.00
2023-05-22T05:21:15.120Z,552.00
2023-05-22T05:22:15.086Z,524.00
2023-05-22T05:23:15.066Z,536.00
2023-05-22T05:24:15.040Z,532.00
2023-05-22T05:25:15.048Z,544.00
2023-05-22T05:26:14.998Z,560.00
2023-05-22T05:27:15.061Z,560.00
2023-05-22T05:28:14.983Z,588.00
2023-05-22T05:29:14.967Z,636.00
2023-05-22T05:30:14.932Z,696.00
2023-05-22T05:31:14.998Z,728.00
2023-05-22T05:32:14.901Z,736.00
2023-05-22T05:33:14.927Z,752.00
2023-05-22T05:34:14.832Z,808.00
2023-05-22T05:35:14.820Z,784.00
2023-05-22T05:36:14.833Z,760.00
2023-05-22T05:37:14.778Z,756.00
2023-05-22T05:38:14.833Z,824.00
2023-05-22T05:39:14.749Z,824.00
2023-05-22T05:40:14.749Z,716.00
2023-05-22T05:41:14.695Z,740.00
2023-05-22T05:42:14.772Z,808.00
2023-05-22T05:43:14.656Z,728.00
2023-05-22T05:44:14.676Z,700.00
2023-05-22T05:45:14.621Z,684.00
2023-05-22T05:46:14.722Z,716.00
2023-05-22T05:47:14.579Z,792.00
2023-05-22T05:48:14.615Z,828.00
2023-05-22T05:49:14.534Z,856.00
2023-05-22T05:50:14.639Z,884.00
2023-05-22T05:51:14.523Z,824.00
2023-05-22T05:52:14.476Z,836.00
2023-05-22T05:53:14.552Z,848.00
2023-05-22T05:54:14.439Z,880.00
2023-05-22T05:55:14.452Z,808.00
2023-05-22T05:56:14.383Z,796.00
2023-05-22T05:57:14.482Z,916.00
2023-05-22T05:58:14.351Z,944.00
2023-05-22T05:59:14.429Z,972.00
2023-05-22T06:00:14.302Z,944.00
2023-05-22T06:01:14.353Z,1020.00
2023-05-22T06:02:14.374Z,1124.00
2023-05-22T06:03:15.384Z,1164.00
2023-05-22T06:04:14.233Z,1116.00
2023-05-22T06:05:14.293Z,1192.00
2023-05-22T06:06:14.202Z,1088.00
2023-05-22T06:07:14.274Z,1068.00
2023-05-22T06:08:14.156Z,1064.00
2023-05-22T06:09:14.146Z,1100.00
2023-05-22T06:10:14.103Z,1000.00
2023-05-22T06:11:14.085Z,904.00
2023-05-22T06:12:14.084Z,848.00
2023-05-22T06:13:14.045Z,916.00
2023-05-22T06:14:14.032Z,916.00
2023-05-22T06:15:13.997Z,928.00
2023-05-22T06:16:14.015Z,992.00
2023-05-22T06:17:13.972Z,1068.00
2023-05-22T06:18:14.145Z,940.00
2023-05-22T06:19:13.980Z,908.00
2023-05-22T06:20:13.894Z,1016.00
2023-05-22T06:21:13.885Z,1048.00
2023-05-22T06:22:13.854Z,1144.00
2023-05-22T06:23:13.842Z,1208.00
2023-05-22T06:24:13.811Z,1264.00
2023-05-22T06:25:13.818Z,1148.00
2023-05-22T06:26:13.785Z,1228.00
2023-05-22T06:27:13.750Z,1212.00
2023-05-22T06:28:14.762Z,1260.00
2023-05-22T06:29:13.726Z,1252.00
2023-05-22T06:30:13.706Z,1580.00
2023-05-22T06:31:13.689Z,1444.00
2023-05-22T06:32:13.728Z,1436.00
2023-05-22T06:33:13.733Z,1404.00
2023-05-22T06:34:13.796Z,1256.00
2023-05-22T06:35:13.603Z,1352.00
2023-05-22T06:36:13.579Z,1396.00
2023-05-22T06:37:13.559Z,1488.00
2023-05-22T06:38:13.530Z,1556.00
2023-05-22T06:39:13.563Z,1528.00
2023-05-22T06:40:13.564Z,1608.00
2023-05-22T06:41:13.470Z,1628.00
2023-05-22T06:42:13.473Z,1628.00
2023-05-22T06:43:13.450Z,1632.00
2023-05-22T06:44:13.409Z,1692.00
2023-05-22T06:45:13.493Z,1636.00
2023-05-22T06:46:13.406Z,1684.00
2023-05-22T06:47:13.411Z,1624.00
2023-05-22T06:48:13.366Z,1624.00
2023-05-22T06:49:13.412Z,1632.00
2023-05-22T06:50:13.280Z,1700.00
2023-05-22T06:51:14.318Z,1744.00
2023-05-22T06:52:13.257Z,1792.00
2023-05-22T06:53:13.354Z,1780.00
2023-05-22T06:54:13.215Z,1836.00
2023-05-22T06:55:13.194Z,1844.00
2023-05-22T06:56:14.334Z,1912.00
2023-05-22T06:57:14.175Z,1924.00
2023-05-22T06:58:14.173Z,1956.00
2023-05-22T06:59:13.828Z,1896.00
2023-05-22T07:00:13.200Z,1788.00
2023-05-22T07:01:13.111Z,1832.00
2023-05-22T07:02:13.156Z,1824.00
2023-05-22T07:03:13.038Z,1716.00
2023-05-22T07:04:13.181Z,1780.00
2023-05-22T07:05:12.984Z,1824.00
2023-05-22T07:06:13.012Z,1684.00
2023-05-22T07:07:12.960Z,1652.00
2023-05-22T07:08:13.050Z,1652.00
2023-05-22T07:09:12.941Z,1660.00
2023-05-22T07:10:13.029Z,1652.00
2023-05-22T07:11:13.065Z,1632.00
2023-05-22T07:12:12.895Z,1664.00
2023-05-22T07:13:13.145Z,1676.00
2023-05-22T07:14:13.743Z,1772.00
2023-05-22T07:15:12.951Z,1860.00
2023-05-22T07:16:12.792Z,1896.00
2023-05-22T07:17:12.757Z,1908.00
2023-05-22T07:18:12.812Z,1944.00
2023-05-22T07:19:12.913Z,1880.00
2023-05-22T07:20:12.686Z,1844.00
2023-05-22T07:21:13.822Z,1852.00
2023-05-22T07:22:12.648Z,1700.00
2023-05-22T07:23:12.628Z,1580.00
2023-05-22T07:24:12.606Z,1536.00
2023-05-22T07:25:12.730Z,1536.00
2023-05-22T07:26:12.583Z,1492.00
2023-05-22T07:27:12.627Z,1492.00
2023-05-22T07:28:12.537Z,1548.00
2023-05-22T07:29:12.505Z,1668.00
2023-05-22T07:30:12.500Z,1796.00
2023-05-22T07:31:12.578Z,1792.00
2023-05-22T07:32:12.445Z,1820.00
2023-05-22T07:33:12.662Z,1836.00
2023-05-22T07:34:12.417Z,1820.00
2023-05-22T07:35:12.385Z,1804.00
2023-05-22T07:36:12.395Z,1856.00
2023-05-22T07:37:12.358Z,1888.00
2023-05-22T07:38:12.439Z,1796.00
2023-05-22T07:39:12.317Z,1736.00
2023-05-22T07:40:12.312Z,1800.00
2023-05-22T07:41:12.334Z,1820.00
2023-05-22T07:42:12.253Z,1916.00
2023-05-22T07:43:12.333Z,1868.00
2023-05-22T07:44:12.220Z,1792.00
2023-05-22T07:45:12.247Z,1752.00
2023-05-22T07:46:12.204Z,1732.00
2023-05-22T07:47:12.152Z,1760.00
2023-05-22T07:48:12.200Z,1704.00
2023-05-22T07:49:12.173Z,1628.00
2023-05-22T07:50:12.091Z,1604.00
2023-05-22T07:51:12.081Z,1612.00
2023-05-22T07:52:12.068Z,1624.00
2023-05-22T07:53:12.041Z,1576.00
2023-05-22T07:54:12.180Z,1556.00
2023-05-22T07:55:11.991Z,1560.00
2023-05-22T07:56:12.020Z,1576.00
2023-05-22T07:57:11.953Z,1616.00
2023-05-22T07:58:12.029Z,1652.00
2023-05-22T07:59:11.945Z,1684.00
2023-05-22T08:00:11.941Z,1680.00
2023-05-22T08:01:11.880Z,1688.00
2023-05-22T08:02:11.986Z,1720.00
2023-05-22T08:03:12.265Z,1732.00
2023-05-22T08:04:12.011Z,1792.00
2023-05-22T08:05:12.024Z,1796.00
2023-05-22T08:06:11.782Z,1808.00
2023-05-22T08:07:11.765Z,1796.00
2023-05-22T08:08:11.796Z,1760.00
2023-05-22T08:09:11.731Z,1728.00
2023-05-22T08:10:11.982Z,1736.00
2023-05-22T08:11:11.677Z,1740.00
2023-05-22T08:12:11.718Z,1740.00
2023-05-22T08:13:11.662Z,1716.00
2023-05-22T08:14:11.760Z,1680.00
2023-05-22T08:15:11.601Z,1652.00
2023-05-22T08:16:11.592Z,1660.00
2023-05-22T08:17:11.595Z,1636.00
2023-05-22T08:18:11.677Z,1604.00
2023-05-22T08:19:11.598Z,1588.00
2023-05-22T08:20:11.802Z,1580.00
2023-05-22T08:21:11.491Z,1560.00
2023-05-22T08:22:11.469Z,1604.00
2023-05-22T08:23:11.509Z,1604.00
2023-05-22T08:24:11.535Z,1608.00
2023-05-22T08:25:11.414Z,1644.00
2023-05-22T08:26:11.607Z,1632.00
2023-05-22T08:27:11.376Z,1620.00
2023-05-22T08:28:11.369Z,1588.00
2023-05-22T08:29:11.321Z,1524.00
2023-05-22T08:30:11.443Z,1484.00
2023-05-22T08:31:11.372Z,1452.00
2023-05-22T08:32:11.364Z,1476.00
2023-05-22T08:33:11.313Z,1516.00
2023-05-22T08:34:11.243Z,1592.00
2023-05-22T08:35:11.217Z,1660.00
2023-05-22T08:36:11.301Z,1696.00
2023-05-22T08:37:11.179Z,1700.00
2023-05-22T08:38:11.188Z,1712.00
2023-05-22T08:39:11.153Z,1680.00
2023-05-22T08:40:11.122Z,1684.00
2023-05-22T08:41:11.097Z,1696.00
2023-05-22T08:42:11.353Z,1708.00
2023-05-22T08:43:11.073Z,1816.00
2023-05-22T08:44:11.138Z,1848.00
2023-05-22T08:45:11.013Z,1876.00
2023-05-22T08:46:11.007Z,1896.00
2023-05-22T08:47:11.047Z,1904.00
2023-05-22T08:48:11.050Z,1884.00
2023-05-22T08:49:10.933Z,1936.00
2023-05-22T08:50:11.064Z,1984.00
2023-05-22T08:51:10.906Z,2016.00
2023-05-22T08:52:10.884Z,2020.00
2023-05-22T08:53:10.872Z,2028.00
2023-05-22T08:54:11.020Z,2040.00
2023-05-22T08:55:10.822Z,2100.00
2023-05-22T08:56:10.909Z,2180.00
2023-05-22T08:57:10.779Z,2232.00
2023-05-22T08:58:10.875Z,2272.00
2023-05-22T08:59:10.749Z,2196.00
2023-05-22T09:00:10.835Z,2172.00
2023-05-22T09:01:10.719Z,2144.00
2023-05-22T09:02:10.847Z,2128.00
2023-05-22T09:03:10.733Z,2120.00
2023-05-22T09:04:10.736Z,2136.00
2023-05-22T09:05:10.769Z,2104.00
2023-05-22T09:06:10.614Z,2156.00
2023-05-22T09:07:10.692Z,2168.00
2023-05-22T09:08:19.832Z,2088.00
2023-05-22T09:09:10.544Z,2004.00
2023-05-22T09:10:10.529Z,2000.00
2023-05-22T09:11:10.608Z,2068.00
2023-05-22T09:12:10.507Z,2112.00
2023-05-22T09:13:10.632Z,2192.00
2023-05-22T09:14:10.447Z,2196.00
2023-05-22T09:15:10.551Z,2180.00
2023-05-22T09:16:10.458Z,2180.00
2023-05-22T09:17:10.588Z,2108.00
2023-05-22T09:18:10.421Z,2048.00
2023-05-22T09:19:10.499Z,1996.00
2023-05-22T09:20:10.345Z,1940.00
2023-05-22T09:21:21.474Z,1888.00
2023-05-22T09:22:10.309Z,1940.00
2023-05-22T09:23:10.427Z,2032.00
2023-05-22T09:24:10.260Z,2068.00
2023-05-22T09:25:10.412Z,2152.00
2023-05-22T09:26:10.224Z,2100.00
2023-05-22T09:27:10.215Z,1976.00
2023-05-22T09:28:10.196Z,1844.00
2023-05-22T09:29:10.296Z,1864.00
2023-05-22T09:30:10.409Z,1836.00
2023-05-22T09:31:10.270Z,1860.00
2023-05-22T09:32:10.104Z,1908.00
2023-05-22T09:33:10.142Z,1768.00
2023-05-22T09:34:10.066Z,1776.00
2023-05-22T09:35:10.187Z,1800.00
2023-05-22T09:36:10.048Z,1848.00
2023-05-22T09:37:10.106Z,1836.00
2023-05-22T09:38:10.828Z,1848.00
2023-05-22T09:39:10.002Z,1868.00
2023-05-22T09:40:10.119Z,1924.00
2023-05-22T09:41:09.928Z,1940.00
2023-05-22T09:42:10.048Z,1940.00
2023-05-22T09:43:09.890Z,1956.00
2023-05-22T09:44:09.895Z,2040.00
2023-05-22T09:45:09.871Z,2112.00
2023-05-22T09:46:10.097Z,2132.00
2023-05-22T09:47:09.820Z,2212.00
2023-05-22T09:48:09.966Z,2244.00
2023-05-22T09:49:09.796Z,2272.00
2023-05-22T09:50:09.781Z,2416.00
2023-05-22T09:51:09.742Z,2500.00
2023-05-22T09:52:09.887Z,2456.00
2023-05-22T09:53:09.715Z,2352.00
2023-05-22T09:54:09.810Z,2372.00
2023-05-22T09:55:09.670Z,2432.00
2023-05-22T09:56:09.651Z,2424.00
2023-05-22T09:57:09.647Z,2384.00
2023-05-22T09:58:10.761Z,2368.00
2023-05-22T09:59:09.812Z,2412.00
2023-05-22T10:00:09.734Z,2452.00
2023-05-22T10:01:09.568Z,2476.00
2023-05-22T10:02:09.662Z,2444.00
2023-05-22T10:03:09.741Z,2492.00
2023-05-22T10:04:09.537Z,2540.00
2023-05-22T10:05:09.580Z,2652.00
2023-05-22T10:06:09.473Z,2732.00
2023-05-22T10:07:09.581Z,2792.00
2023-05-22T10:08:09.430Z,2924.00
2023-05-22T10:09:09.511Z,3076.00
2023-05-22T10:10:09.424Z,3068.00
2023-05-22T10:11:09.511Z,3016.00
2023-05-22T10:12:09.345Z,2980.00
2023-05-22T10:13:09.327Z,3032.00
2023-05-22T10:14:09.307Z,3184.00
2023-05-22T10:15:09.444Z,3364.00
2023-05-22T10:16:09.323Z,3432.00
2023-05-22T10:17:09.360Z,3400.00
2023-05-22T10:18:09.416Z,3380.00
2023-05-22T10:19:09.238Z,3448.00
2023-05-22T10:20:09.263Z,3452.00
2023-05-22T10:21:09.192Z,3432.00
2023-05-22T10:22:09.234Z,3604.00
2023-05-22T10:23:09.140Z,3716.00
2023-05-22T10:24:09.143Z,3840.00
2023-05-22T10:25:10.632Z,3748.00
2023-05-22T10:26:09.211Z,3868.00
2023-05-22T10:27:09.078Z,3920.00
2023-05-22T10:28:09.251Z,4152.00
2023-05-22T10:29:09.048Z,4448.00
2023-05-22T10:30:09.014Z,4532.00
2023-05-22T10:31:08.993Z,4644.00
2023-05-22T10:32:09.048Z,4772.00
2023-05-22T10:33:09.027Z,5104.00
2023-05-22T10:34:09.248Z,5448.00
2023-05-22T10:35:08.922Z,5876.00
2023-05-22T10:36:08.914Z,5904.00
2023-05-22T10:37:16.548Z,6056.00
2023-05-22T10:38:08.878Z,5828.00
2023-05-22T10:39:09.009Z,6404.00
2023-05-22T10:40:08.843Z,6268.00
2023-05-22T10:41:08.910Z,5880.00
2023-05-22T10:42:08.800Z,6388.00
2023-05-22T10:43:08.922Z,6424.00
2023-05-22T10:44:08.757Z,6460.00
2023-05-22T10:45:08.855Z,5876.00
2023-05-22T10:46:08.789Z,6412.00
2023-05-22T10:47:08.715Z,6388.00
2023-05-22T10:48:08.759Z,6332.00
2023-05-22T10:49:08.768Z,6556.00
2023-05-22T10:50:08.749Z,6624.00
2023-05-22T10:51:08.782Z,6740.00
2023-05-22T10:52:08.616Z,6712.00
2023-05-22T10:53:08.613Z,6644.00
2023-05-22T10:54:08.580Z,6608.00
2023-05-22T10:55:08.723Z,6052.00
2023-05-22T10:56:08.563Z,6604.00
2023-05-22T10:57:08.613Z,6484.00
2023-05-22T10:58:08.539Z,6544.00
2023-05-22T10:59:08.642Z,6520.00
2023-05-22T11:00:08.633Z,5988.00
2023-05-22T11:01:08.462Z,6152.00
2023-05-22T11:02:09.674Z,6460.00
2023-05-22T11:03:17.950Z,6564.00
2023-05-22T11:04:08.424Z,6464.00
2023-05-22T11:05:08.457Z,6460.00
2023-05-22T11:06:08.553Z,6616.00
2023-05-22T11:07:08.364Z,6620.00
2023-05-22T11:08:08.484Z,6604.00
2023-05-22T11:09:08.330Z,6552.00
2023-05-22T11:10:08.324Z,6548.00
2023-05-22T11:11:08.406Z,6028.00
2023-05-22T11:12:08.286Z,6580.00
2023-05-22T11:13:08.422Z,6536.00
2023-05-22T11:14:08.251Z,6592.00
2023-05-22T11:15:08.333Z,6536.00
2023-05-22T11:16:08.233Z,6436.00
2023-05-22T11:17:08.441Z,6536.00
2023-05-22T11:18:08.241Z,6492.00
2023-05-22T11:19:22.036Z,6408.00
2023-05-22T11:20:08.323Z,6536.00
2023-05-22T11:21:08.150Z,6016.00
2023-05-22T11:22:08.222Z,6608.00
2023-05-22T11:23:08.215Z,6448.00
2023-05-22T11:24:08.121Z,5812.00
2023-05-22T11:25:08.204Z,6432.00
2023-05-22T11:26:08.066Z,6432.00
2023-05-22T11:27:08.053Z,6492.00
2023-05-22T11:28:08.039Z,6436.00
2023-05-22T11:29:08.152Z,6612.00
2023-05-22T11:30:08.034Z,6244.00
2023-05-22T11:31:09.089Z,5872.00
2023-05-22T11:32:08.046Z,6412.00
2023-05-22T11:33:08.069Z,6336.00
2023-05-22T11:34:07.939Z,6408.00
2023-05-22T11:35:08.070Z,6568.00
2023-05-22T11:36:07.912Z,6604.00
2023-05-22T11:37:07.998Z,6700.00
2023-05-22T11:38:08.031Z,6160.00
2023-05-22T11:39:07.861Z,6004.00
2023-05-22T11:40:07.916Z,5740.00
2023-05-22T11:41:07.829Z,6556.00
2023-05-22T11:42:07.921Z,6412.00
2023-05-22T11:43:07.795Z,6628.00
2023-05-22T11:44:07.937Z,6720.00
2023-05-22T11:45:07.776Z,6744.00
2023-05-22T11:46:07.919Z,6716.00
2023-05-22T11:47:07.747Z,6484.00
2023-05-22T11:48:07.894Z,5964.00
2023-05-22T11:49:07.715Z,6156.00
2023-05-22T11:50:07.702Z,6512.00
2023-05-22T11:51:07.702Z,5928.00
2023-05-22T11:52:07.776Z,5668.00
2023-05-22T11:53:07.653Z,5664.00
2023-05-22T11:54:07.792Z,5784.00
2023-05-22T11:55:07.634Z,6032.00
2023-05-22T11:56:07.611Z,6444.00
2023-05-22T11:57:07.585Z,6620.00
2023-05-22T11:58:07.735Z,6676.00
2023-05-22T11:59:07.567Z,6764.00
2023-05-22T12:00:07.681Z,6768.00
2023-05-22T12:01:07.533Z,6724.00
2023-05-22T12:02:07.658Z,6788.00
2023-05-22T12:03:07.590Z,6804.00
2023-05-22T12:04:07.689Z,6728.00
2023-05-22T12:05:07.480Z,6692.00
2023-05-22T12:06:07.588Z,6428.00
2023-05-22T12:07:07.441Z,6692.00
2023-05-22T12:08:07.588Z,6608.00
2023-05-22T12:09:07.412Z,6536.00
2023-05-22T12:10:07.637Z,6480.00
2023-05-22T12:11:07.377Z,6420.00
2023-05-22T12:12:07.508Z,6492.00
2023-05-22T12:13:07.350Z,6464.00
2023-05-22T12:14:07.433Z,6440.00
2023-05-22T12:15:07.384Z,6296.00
2023-05-22T12:16:07.468Z,6480.00
2023-05-22T12:17:07.291Z,6416.00
2023-05-22T12:18:07.274Z,6460.00
2023-05-22T12:19:07.289Z,6460.00
2023-05-22T12:20:07.413Z,6320.00
2023-05-22T12:21:07.241Z,6384.00
2023-05-22T12:22:07.266Z,6380.00
2023-05-22T12:23:07.197Z,6256.00
2023-05-22T12:24:07.354Z,6360.00
2023-05-22T12:25:07.179Z,6364.00
2023-05-22T12:26:07.391Z,6400.00
2023-05-22T12:27:07.136Z,6400.00
2023-05-22T12:28:07.218Z,6436.00
2023-05-22T12:29:07.213Z,6456.00
2023-05-22T12:30:07.112Z,6392.00